Ana Sayfa
METAR-TAF:

METAR-TAF

Havaalanları :

Las Cruces International Airport

Las Cruces, New Mexico, Amerika Birleşik Devletleri

Enlem: 32-17-22N, Boylam: 106-55-19W, yükseklik: 1358 m

Güncel hava durumu gözlemi

Rapor saat 01:35 UTC de 16 dakika önce yapıldı.
Rüzgar doğu/güneydoğudan 10 kt
Sıcaklık 35°C
Nem 13%
Basınç 1021 hPa
Görüş mesafesi: 16.1 km
Açık gökyüzü

METAR: KLRU 140135Z AUTO 12010KT 10SM CLR 35/02 A3016 RMK AO2 T03450021

Saat: 19:51 (01:51 UTC)

Tahmin

Rapor saat 23:20 UTC de 2 saat ve 31 dakika önce yapıldı.
Ayın 14'si saat 00 UTC'den ayın 14'si saat 24 UTC'ye kadar geçerli Tahmin
Rüzgar güneydoğudan 9 kt
Görüş mesafesi: 10 km
Açık gökyüzü
Ayın 14'si saat 0100 UTC'den
Rüzgar güneydoğudan 6 kt
Görüş mesafesi: 10 km
Açık gökyüzü
Ayın 14'si saat 1900 UTC'den
Rüzgar doğu/güneydoğudan 10 kt ve 18 kt'a kadar ani rüzgarlar
Görüş mesafesi: 10 km
Açık gökyüzü

TAF: KLRU 132320Z 1400/1424 14009KT P6SM SKC FM140100 13006KT P6SM SKC FM141900 12010G18KT P6SM SKC

4.000'den fazla havaalanı için hava durumu gözlemleri ve tahminleri (METAR ve TAF raporları).

Kullanılabilir istasyonlar harita üzerinde sarı ve kırmızı noktalarla gösterilir.

İstasyonun adını görmek için fareyi noktanın üzerinde gezdirin.

Sonrasında hava gözlem ve tahminlerini görmek için tıklayın.

Haritayı değiştirmek için: yaklaştırmak için siyah artı işaretli yeşil düğmeye ve uzaklaştırmak için de eksi işaretli düğmeye hızla tıklayın; bitişik haritalar için yeşil okları kullanın.


METAR-TAF: